Armiesburg, Indiana
Current Conditions -  °F | °C
As of 7:35 AM on Saturday 25 Oct 2014 (Local Time) from KPRG Reporting Station
Scattered Clouds Scattered Clouds  
Wind Chill: 54°   Ceiling: Unl
Heat Index: 54°   Visibility: 7mi
Dew Point: 52°   Wind: 6mph
Humidity: 95%   Direction: 240°WSW
Pressure: 29.98"   Gusts: NA
Location:  39.8207°N, 87.3335°W
Report Text: KPRG 251135Z AUTO 24005KT 7SM SCT016 12/11 A2998 RMK AO2 T01200112
Loading
Personal Weather Stations






























Interactive Weather Map
Tropical Storm Tracking
New forecast layout! Learn more

10-Day Weather Forecast

Advertisements
Track Severe Weather on mobile